createdAt,value
2023-04-25T00:01:25.241Z,4.90
2023-04-25T00:03:52.512Z,5.00
2023-04-25T00:06:19.785Z,5.00
2023-04-25T00:08:46.617Z,5.00
2023-04-25T00:11:13.398Z,5.00
2023-04-25T00:13:42.720Z,5.00
2023-04-25T00:16:09.629Z,5.00
2023-04-25T00:18:37.309Z,5.10
2023-04-25T00:21:04.088Z,5.10
2023-04-25T00:23:30.867Z,5.10
2023-04-25T00:25:57.598Z,5.20
2023-04-25T00:28:24.376Z,5.10
2023-04-25T00:30:51.338Z,5.10
2023-04-25T00:33:18.088Z,5.10
2023-04-25T00:35:44.832Z,5.10
2023-04-25T00:38:11.592Z,5.10
2023-04-25T00:40:38.354Z,5.10
2023-04-25T00:43:05.217Z,5.10
2023-04-25T00:45:32.247Z,5.10
2023-04-25T00:47:59.051Z,5.10
2023-04-25T00:50:25.896Z,5.10
2023-04-25T00:52:53.206Z,5.00
2023-04-25T00:55:20.959Z,5.00
2023-04-25T00:57:47.928Z,4.90
2023-04-25T01:00:15.660Z,4.90
2023-04-25T01:02:46.009Z,4.90
2023-04-25T01:05:13.248Z,4.80
2023-04-25T01:07:40.196Z,4.80
2023-04-25T01:10:07.585Z,4.70
2023-04-25T01:12:34.706Z,4.50
2023-04-25T01:15:01.789Z,4.50
2023-04-25T01:17:30.160Z,4.40
2023-04-25T01:19:57.202Z,4.30
2023-04-25T01:22:24.360Z,4.30
2023-04-25T01:24:51.204Z,4.40
2023-04-25T01:27:19.065Z,4.40
2023-04-25T01:29:46.688Z,4.30
2023-04-25T01:32:14.984Z,4.40
2023-04-25T01:34:41.751Z,4.30
2023-04-25T01:37:08.525Z,4.30
2023-04-25T01:39:35.343Z,4.40
2023-04-25T01:42:02.644Z,4.40
2023-04-25T01:44:29.540Z,4.40
2023-04-25T01:46:56.380Z,4.40
2023-04-25T01:49:23.133Z,4.50
2023-04-25T01:51:49.987Z,4.50
2023-04-25T01:54:16.704Z,4.50
2023-04-25T01:56:43.453Z,4.60
2023-04-25T01:59:10.234Z,4.60
2023-04-25T02:01:37.128Z,4.70
2023-04-25T02:04:04.156Z,4.70
2023-04-25T02:06:31.903Z,4.70
2023-04-25T02:08:58.640Z,4.60
2023-04-25T02:11:25.341Z,4.60
2023-04-25T02:13:52.176Z,4.60
2023-04-25T02:16:20.118Z,4.60
2023-04-25T02:18:47.971Z,4.60
2023-04-25T02:21:14.738Z,4.60
2023-04-25T02:23:41.576Z,4.60
2023-04-25T02:26:08.304Z,4.60
2023-04-25T02:28:35.032Z,4.50
2023-04-25T02:31:01.854Z,4.50
2023-04-25T02:33:28.722Z,4.50
2023-04-25T02:35:55.476Z,4.60
2023-04-25T02:38:22.147Z,4.60
2023-04-25T02:40:48.902Z,4.70
2023-04-25T02:43:17.021Z,4.70
2023-04-25T02:45:43.787Z,4.70
2023-04-25T02:48:10.598Z,4.60
2023-04-25T02:50:37.403Z,4.60
2023-04-25T02:53:04.170Z,4.50
2023-04-25T02:55:30.908Z,4.60
2023-04-25T02:57:57.686Z,4.50
2023-04-25T03:00:24.396Z,4.50
2023-04-25T03:02:52.066Z,4.50
2023-04-25T03:05:19.009Z,4.50
2023-04-25T03:07:46.691Z,4.50
2023-04-25T03:10:13.605Z,4.50
2023-04-25T03:12:40.302Z,4.40
2023-04-25T03:15:07.385Z,4.40
2023-04-25T03:17:34.218Z,4.30
2023-04-25T03:20:02.095Z,4.20
2023-04-25T03:22:28.891Z,4.10
2023-04-25T03:24:55.623Z,4.20
2023-04-25T03:27:22.352Z,4.10
2023-04-25T03:29:49.062Z,4.10
2023-04-25T03:32:16.006Z,4.00
2023-04-25T03:34:42.791Z,4.00
2023-04-25T03:37:09.507Z,4.00
2023-04-25T03:39:36.227Z,4.10
2023-04-25T03:42:03.883Z,4.10
2023-04-25T03:44:30.677Z,4.10
2023-04-25T03:46:57.724Z,4.10
2023-04-25T03:49:25.207Z,4.00
2023-04-25T03:51:52.018Z,4.00
2023-04-25T03:54:18.745Z,3.90
2023-04-25T03:56:45.560Z,4.00
2023-04-25T03:59:12.319Z,4.00
2023-04-25T04:01:39.020Z,4.00
2023-04-25T04:04:06.040Z,3.90
2023-04-25T04:06:33.187Z,3.90
2023-04-25T04:08:59.893Z,3.80
2023-04-25T04:11:27.041Z,3.80
2023-04-25T04:13:53.749Z,3.90
2023-04-25T04:16:20.584Z,3.90
2023-04-25T04:18:47.531Z,3.90
2023-04-25T04:21:14.286Z,3.90
2023-04-25T04:23:41.323Z,4.00
2023-04-25T04:26:09.576Z,4.00
2023-04-25T04:28:36.772Z,4.10
2023-04-25T04:31:03.874Z,4.10
2023-04-25T04:33:32.095Z,4.10
2023-04-25T04:35:58.876Z,4.20
2023-04-25T04:38:26.430Z,4.20
2023-04-25T04:40:53.486Z,4.30
2023-04-25T04:43:20.253Z,4.30
2023-04-25T04:45:47.087Z,4.30
2023-04-25T04:48:15.123Z,4.30
2023-04-25T04:50:43.742Z,4.20
2023-04-25T04:53:10.475Z,4.20
2023-04-25T04:55:37.272Z,4.20
2023-04-25T04:58:04.047Z,4.20
2023-04-25T05:00:30.947Z,4.30
2023-04-25T05:02:58.171Z,4.50
2023-04-25T05:05:25.200Z,4.60
2023-04-25T05:07:52.587Z,4.60
2023-04-25T05:10:20.425Z,4.60
2023-04-25T05:12:47.332Z,4.70
2023-04-25T05:15:14.812Z,4.60
2023-04-25T05:17:41.611Z,4.70
2023-04-25T05:20:10.316Z,4.70
2023-04-25T05:22:37.114Z,4.80
2023-04-25T05:25:04.632Z,4.80
2023-04-25T05:27:31.444Z,4.90
2023-04-25T05:29:58.165Z,4.90
2023-04-25T05:32:26.186Z,5.00
2023-04-25T05:34:53.108Z,5.00
2023-04-25T05:37:19.917Z,5.10
2023-04-25T05:39:46.667Z,5.20
2023-04-25T05:42:13.471Z,5.20
2023-04-25T05:44:40.417Z,5.30
2023-04-25T05:47:07.256Z,5.40
2023-04-25T05:49:34.675Z,5.40
2023-04-25T05:52:01.615Z,5.50
2023-04-25T05:54:28.353Z,5.60
2023-04-25T05:56:55.115Z,5.70
2023-04-25T05:59:21.845Z,5.70
2023-04-25T06:01:48.557Z,5.70
2023-04-25T06:04:15.594Z,5.70
2023-04-25T06:06:42.532Z,5.70
2023-04-25T06:09:09.253Z,5.80
2023-04-25T06:11:36.167Z,5.90
2023-04-25T06:14:02.953Z,6.10
2023-04-25T06:16:29.894Z,6.20
2023-04-25T06:18:56.740Z,6.30
2023-04-25T06:21:23.516Z,6.40
2023-04-25T06:23:50.618Z,6.50
2023-04-25T06:26:17.826Z,6.50
2023-04-25T06:28:44.628Z,6.50
2023-04-25T06:31:11.541Z,6.50
2023-04-25T06:33:38.457Z,6.50
2023-04-25T06:36:05.474Z,6.50
2023-04-25T06:38:32.380Z,6.60
2023-04-25T06:40:59.070Z,6.60
2023-04-25T06:43:25.807Z,6.70
2023-04-25T06:45:52.587Z,6.70
2023-04-25T06:48:19.316Z,6.70
2023-04-25T06:50:46.114Z,6.70
2023-04-25T06:53:13.125Z,6.70
2023-04-25T06:55:39.931Z,6.70
2023-04-25T06:58:06.624Z,6.80
2023-04-25T07:00:34.546Z,6.80
2023-04-25T07:03:01.752Z,7.00
2023-04-25T07:05:28.667Z,7.20
2023-04-25T07:07:55.909Z,7.30
2023-04-25T07:10:22.762Z,7.50
2023-04-25T07:12:49.657Z,7.60
2023-04-25T07:15:16.759Z,8.00
2023-04-25T07:17:43.702Z,8.20
2023-04-25T07:20:11.177Z,8.10
2023-04-25T07:22:38.028Z,8.00
2023-04-25T07:25:08.220Z,7.90
2023-04-25T07:27:34.983Z,7.70
2023-04-25T07:30:01.853Z,7.70
2023-04-25T07:32:28.687Z,7.80
2023-04-25T07:34:55.560Z,7.80
2023-04-25T07:37:22.388Z,7.80
2023-04-25T07:39:49.435Z,8.00
2023-04-25T07:42:16.158Z,8.10
2023-04-25T07:44:43.374Z,8.00
2023-04-25T07:47:11.301Z,8.00
2023-04-25T07:49:38.471Z,7.90
2023-04-25T07:52:07.341Z,7.80
2023-04-25T07:54:34.181Z,7.70
2023-04-25T07:57:00.970Z,7.70
2023-04-25T07:59:30.024Z,7.80
2023-04-25T08:01:58.423Z,7.90
2023-04-25T08:04:26.838Z,7.90
2023-04-25T08:06:54.786Z,7.90
2023-04-25T08:09:22.199Z,7.80
2023-04-25T08:11:49.328Z,7.80
2023-04-25T08:14:16.065Z,7.90
2023-04-25T08:16:43.326Z,8.00
2023-04-25T08:19:11.202Z,8.10
2023-04-25T08:21:38.047Z,8.20
2023-04-25T08:24:05.029Z,8.30
2023-04-25T08:26:31.870Z,8.50
2023-04-25T08:28:58.586Z,8.50
2023-04-25T08:31:25.329Z,8.60
2023-04-25T08:33:53.027Z,8.50
2023-04-25T08:36:31.504Z,8.50
2023-04-25T08:39:05.134Z,8.70
2023-04-25T08:41:32.738Z,8.80
2023-04-25T08:44:01.551Z,8.90
2023-04-25T08:46:28.835Z,8.90
2023-04-25T08:49:01.057Z,9.10
2023-04-25T08:51:31.950Z,9.30
2023-04-25T08:54:16.184Z,9.30
2023-04-25T08:56:50.721Z,9.30
2023-04-25T08:59:18.436Z,9.20
2023-04-25T09:01:46.151Z,9.00
2023-04-25T09:04:13.867Z,8.70
2023-04-25T09:06:40.950Z,8.50
2023-04-25T09:09:09.735Z,8.10
2023-04-25T09:11:37.917Z,8.00
2023-04-25T09:14:17.961Z,7.70
2023-04-25T09:16:56.697Z,7.40
2023-04-25T09:19:38.770Z,7.30
2023-04-25T09:22:08.798Z,7.10
2023-04-25T09:24:41.654Z,7.10
2023-04-25T09:27:13.165Z,7.00
2023-04-25T09:29:41.828Z,7.10
2023-04-25T09:32:17.603Z,7.10
2023-04-25T09:34:49.359Z,7.30
2023-04-25T09:37:42.681Z,7.40
2023-04-25T09:40:11.134Z,7.50
2023-04-25T09:42:42.508Z,7.60
2023-04-25T09:45:13.578Z,7.60
2023-04-25T09:47:41.509Z,7.70
2023-04-25T09:50:20.067Z,7.50
2023-04-25T09:52:46.861Z,7.80
2023-04-25T09:55:13.693Z,7.60
2023-04-25T09:57:41.321Z,7.80
2023-04-25T10:00:13.029Z,7.90
2023-04-25T10:02:43.439Z,7.90
2023-04-25T10:05:11.710Z,8.20
2023-04-25T10:07:39.833Z,8.20
2023-04-25T10:10:07.249Z,8.30
2023-04-25T10:12:35.133Z,8.40
2023-04-25T10:15:03.784Z,8.50
2023-04-25T10:17:30.940Z,8.60
2023-04-25T10:19:58.478Z,8.80
2023-04-25T10:22:33.949Z,8.90
2023-04-25T10:25:01.339Z,8.60
2023-04-25T10:27:29.348Z,8.60
2023-04-25T10:30:12.461Z,8.80
2023-04-25T10:32:39.663Z,9.10
2023-04-25T10:35:24.943Z,9.40
2023-04-25T10:38:11.400Z,9.50
2023-04-25T10:40:38.187Z,9.40
2023-04-25T10:43:29.810Z,9.30
2023-04-25T10:45:56.508Z,9.00
2023-04-25T10:48:50.321Z,9.10
2023-04-25T10:51:25.831Z,9.10
2023-04-25T10:54:06.441Z,9.10
2023-04-25T10:56:42.294Z,9.10
2023-04-25T10:59:19.208Z,8.90
2023-04-25T11:01:48.323Z,8.50
2023-04-25T11:04:26.848Z,8.20
2023-04-25T11:07:09.297Z,8.00
2023-04-25T11:09:37.370Z,8.00
2023-04-25T11:12:04.582Z,8.10
2023-04-25T11:14:31.431Z,8.30
2023-04-25T11:17:00.746Z,8.50
2023-04-25T11:19:28.947Z,8.40
2023-04-25T11:22:03.675Z,8.40
2023-04-25T11:24:35.884Z,8.50
2023-04-25T11:27:03.780Z,8.30
2023-04-25T11:29:31.990Z,8.20
2023-04-25T11:31:59.628Z,8.00
2023-04-25T11:34:27.138Z,7.90
2023-04-25T11:36:54.592Z,7.60
2023-04-25T11:39:22.414Z,7.20
2023-04-25T11:41:49.314Z,6.90
2023-04-25T11:44:20.502Z,6.60
2023-04-25T11:46:47.706Z,6.40
2023-04-25T11:49:19.285Z,6.40
2023-04-25T11:51:48.457Z,6.40
2023-04-25T11:54:16.417Z,6.50
2023-04-25T11:56:44.342Z,6.50
2023-04-25T11:59:11.591Z,6.50
2023-04-25T12:01:40.786Z,6.70
2023-04-25T12:04:15.109Z,6.80
2023-04-25T12:06:43.655Z,6.80
2023-04-25T12:09:12.223Z,6.90
2023-04-25T12:11:49.979Z,6.70
2023-04-25T12:14:30.976Z,6.80
2023-04-25T12:16:59.993Z,6.70
2023-04-25T12:19:27.549Z,6.60
2023-04-25T12:21:58.710Z,6.70
2023-04-25T12:24:28.394Z,6.70
2023-04-25T12:27:06.069Z,6.70
2023-04-25T12:29:46.000Z,6.80
2023-04-25T12:32:16.694Z,6.90
2023-04-25T12:34:43.595Z,6.90
2023-04-25T12:37:10.658Z,6.90
2023-04-25T12:39:37.602Z,7.00
2023-04-25T12:42:07.821Z,6.70
2023-04-25T12:44:36.656Z,6.60
2023-04-25T12:47:04.160Z,6.70
2023-04-25T12:49:31.289Z,6.60
2023-04-25T12:51:58.299Z,6.50
2023-04-25T12:54:25.713Z,6.50
2023-04-25T12:56:52.573Z,6.40
2023-04-25T12:59:20.915Z,6.20
2023-04-25T13:01:47.969Z,6.40
2023-04-25T13:04:14.914Z,6.50
2023-04-25T13:06:41.705Z,6.60
2023-04-25T13:09:08.397Z,6.60
2023-04-25T13:11:35.206Z,7.00
2023-04-25T13:14:02.705Z,6.90
2023-04-25T13:16:29.580Z,7.20
2023-04-25T13:18:57.358Z,7.40
2023-04-25T13:21:24.397Z,7.50
2023-04-25T13:23:51.382Z,7.50
2023-04-25T13:26:18.511Z,7.80
2023-04-25T13:28:45.916Z,8.00
2023-04-25T13:31:12.727Z,8.30
2023-04-25T13:33:39.503Z,8.70
2023-04-25T13:36:06.545Z,8.80
2023-04-25T13:38:33.617Z,9.10
2023-04-25T13:41:00.570Z,9.20
2023-04-25T13:43:27.329Z,9.10
2023-04-25T13:45:54.145Z,9.10
2023-04-25T13:48:21.214Z,9.30
2023-04-25T13:50:48.096Z,9.70
2023-04-25T13:53:15.221Z,10.50
2023-04-25T13:55:42.044Z,11.30
2023-04-25T13:58:10.618Z,11.40
2023-04-25T14:00:39.980Z,10.80
2023-04-25T14:03:08.987Z,10.50
2023-04-25T14:05:41.220Z,10.30
2023-04-25T14:08:09.449Z,10.10
2023-04-25T14:10:36.747Z,9.60
2023-04-25T14:13:04.483Z,9.30
2023-04-25T14:15:35.588Z,9.50
2023-04-25T14:18:02.679Z,10.20
2023-04-25T14:20:29.843Z,10.40
2023-04-25T14:22:58.962Z,10.20
2023-04-25T14:25:26.319Z,9.80
2023-04-25T14:27:53.152Z,9.50
2023-04-25T14:30:21.392Z,9.70
2023-04-25T14:32:50.580Z,10.10
2023-04-25T14:35:17.708Z,10.20
2023-04-25T14:37:44.988Z,9.70
2023-04-25T14:40:14.019Z,9.50
2023-04-25T14:42:41.406Z,9.30
2023-04-25T14:45:09.642Z,9.40
2023-04-25T14:47:39.679Z,9.90
2023-04-25T14:50:07.763Z,10.20
2023-04-25T14:52:34.690Z,10.00
2023-04-25T14:55:05.694Z,10.00
2023-04-25T14:57:36.123Z,9.90
2023-04-25T15:00:06.079Z,9.50
2023-04-25T15:02:33.027Z,9.60
2023-04-25T15:05:00.035Z,9.60
2023-04-25T15:07:26.989Z,9.70
2023-04-25T15:09:54.953Z,9.70
2023-04-25T15:12:21.829Z,9.60
2023-04-25T15:14:48.588Z,9.70
2023-04-25T15:17:15.846Z,9.40
2023-04-25T15:19:42.565Z,9.20
2023-04-25T15:22:09.452Z,9.10
2023-04-25T15:24:36.542Z,8.90
2023-04-25T15:27:04.031Z,8.70
2023-04-25T15:29:31.052Z,8.50
2023-04-25T15:31:58.361Z,8.50
2023-04-25T15:34:25.110Z,8.50
2023-04-25T15:36:52.156Z,8.40
2023-04-25T15:39:18.934Z,8.40
2023-04-25T15:41:45.789Z,8.30
2023-04-25T15:44:12.508Z,8.10
2023-04-25T15:46:39.852Z,8.10
2023-04-25T15:49:06.797Z,8.00
2023-04-25T15:51:33.752Z,8.00
2023-04-25T15:54:02.603Z,7.80
2023-04-25T15:56:29.595Z,7.60
2023-04-25T15:58:56.310Z,7.20
2023-04-25T16:01:24.566Z,6.80
2023-04-25T16:03:53.165Z,6.70
2023-04-25T16:06:20.385Z,6.60
2023-04-25T16:08:47.134Z,6.50
2023-04-25T16:11:14.800Z,6.40
2023-04-25T16:13:41.772Z,6.40
2023-04-25T16:16:08.788Z,6.50
2023-04-25T16:18:35.768Z,6.50
2023-04-25T16:21:02.756Z,6.50
2023-04-25T16:23:29.926Z,6.60
2023-04-25T16:25:56.848Z,6.60
2023-04-25T16:28:23.681Z,6.60
2023-04-25T16:30:50.505Z,6.60
2023-04-25T16:33:17.328Z,6.50
2023-04-25T16:35:44.474Z,6.40
2023-04-25T16:38:11.235Z,6.40
2023-04-25T16:40:38.073Z,6.30
2023-04-25T16:43:04.827Z,6.30
2023-04-25T16:45:31.775Z,6.10
2023-04-25T16:47:58.634Z,6.20
2023-04-25T16:50:25.536Z,6.20
2023-04-25T16:52:52.505Z,6.10
2023-04-25T16:55:19.368Z,6.00
2023-04-25T16:57:46.111Z,5.90
2023-04-25T17:00:13.645Z,5.80
2023-04-25T17:02:40.699Z,5.80
2023-04-25T17:05:07.950Z,5.70
2023-04-25T17:07:34.667Z,5.70
2023-04-25T17:10:01.447Z,5.60
2023-04-25T17:12:28.264Z,5.50
2023-04-25T17:14:55.021Z,5.60
2023-04-25T17:17:21.792Z,5.70
2023-04-25T17:19:48.544Z,5.60
2023-04-25T17:22:15.756Z,5.70
2023-04-25T17:24:42.577Z,5.60
2023-04-25T17:27:11.223Z,5.60
2023-04-25T17:29:37.969Z,5.60
2023-04-25T17:32:05.062Z,5.50
2023-04-25T17:34:31.898Z,5.50
2023-04-25T17:36:58.776Z,5.50
2023-04-25T17:39:25.563Z,5.60
2023-04-25T17:41:52.712Z,5.60
2023-04-25T17:44:19.464Z,5.70
2023-04-25T17:46:46.211Z,5.70
2023-04-25T17:49:13.059Z,5.70
2023-04-25T17:51:39.853Z,5.60
2023-04-25T17:54:06.720Z,5.60
2023-04-25T17:56:36.358Z,5.60
2023-04-25T17:59:03.213Z,5.70
2023-04-25T18:01:30.362Z,5.70
2023-04-25T18:03:57.255Z,5.70
2023-04-25T18:06:24.149Z,5.50
2023-04-25T18:08:51.542Z,5.50
2023-04-25T18:11:18.566Z,5.50
2023-04-25T18:13:45.325Z,5.40
2023-04-25T18:16:12.165Z,5.30
2023-04-25T18:18:38.959Z,5.30
2023-04-25T18:21:07.845Z,5.30
2023-04-25T18:23:35.131Z,5.30
2023-04-25T18:26:03.968Z,5.40
2023-04-25T18:28:30.836Z,5.40
2023-04-25T18:30:57.938Z,5.50
2023-04-25T18:33:25.244Z,5.50
2023-04-25T18:38:35.036Z,5.40
2023-04-25T18:41:18.424Z,5.40
2023-04-25T18:43:49.783Z,5.40
2023-04-25T18:46:17.764Z,5.40
2023-04-25T18:48:44.564Z,5.30
2023-04-25T18:51:11.789Z,5.30
2023-04-25T18:53:38.634Z,5.20
2023-04-25T18:56:05.634Z,5.20
2023-04-25T18:58:32.550Z,5.30
2023-04-25T19:00:59.946Z,5.30
2023-04-25T19:03:27.552Z,5.30
2023-04-25T19:05:54.436Z,5.30
2023-04-25T19:08:21.742Z,5.30
2023-04-25T19:10:50.223Z,5.40
2023-04-25T19:13:16.979Z,5.40
2023-04-25T19:15:43.770Z,5.30
2023-04-25T19:18:10.589Z,5.40
2023-04-25T19:20:37.480Z,5.30
2023-04-25T19:23:05.422Z,5.30
2023-04-25T19:25:32.242Z,5.30
2023-04-25T19:28:00.602Z,5.40
2023-04-25T19:30:29.321Z,5.30
2023-04-25T19:32:59.092Z,5.30
2023-04-25T19:35:30.722Z,5.40
2023-04-25T19:37:57.508Z,5.40
2023-04-25T19:40:25.120Z,5.40
2023-04-25T19:42:51.836Z,5.40
2023-04-25T19:45:18.685Z,5.40
2023-04-25T19:47:45.504Z,5.40
2023-04-25T19:50:12.436Z,5.30
2023-04-25T19:52:39.493Z,5.40
2023-04-25T19:55:07.086Z,5.30
2023-04-25T19:57:37.584Z,5.40
2023-04-25T20:00:14.342Z,5.40
2023-04-25T20:02:43.699Z,5.50
2023-04-25T20:05:12.584Z,5.40
2023-04-25T20:07:39.560Z,5.40
2023-04-25T20:10:13.692Z,5.40
2023-04-25T20:12:40.649Z,5.30
2023-04-25T20:15:11.802Z,5.30
2023-04-25T20:17:40.306Z,5.30
2023-04-25T20:20:08.032Z,5.30
2023-04-25T20:22:38.804Z,5.40
2023-04-25T20:25:08.127Z,5.30
2023-04-25T20:27:35.071Z,5.30
2023-04-25T20:30:04.982Z,5.40
2023-04-25T20:32:32.203Z,5.30
2023-04-25T20:34:59.012Z,5.30
2023-04-25T20:37:25.798Z,5.30
2023-04-25T20:39:52.772Z,5.30
2023-04-25T20:42:19.601Z,5.30
2023-04-25T20:44:46.392Z,5.40
2023-04-25T20:47:13.133Z,5.30
2023-04-25T20:49:39.925Z,5.20
2023-04-25T20:52:07.697Z,5.20
2023-04-25T20:54:34.457Z,5.20
2023-04-25T20:57:02.361Z,5.20
2023-04-25T20:59:29.214Z,5.20
2023-04-25T21:01:56.471Z,5.20
2023-04-25T21:04:23.819Z,5.20
2023-04-25T21:06:50.676Z,5.20
2023-04-25T21:09:18.605Z,5.20
2023-04-25T21:11:46.201Z,5.20
2023-04-25T21:14:12.984Z,5.20
2023-04-25T21:16:40.866Z,5.20
2023-04-25T21:19:07.620Z,5.20
2023-04-25T21:21:34.434Z,5.20
2023-04-25T21:24:01.118Z,5.20
2023-04-25T21:26:27.910Z,5.20
2023-04-25T21:28:54.770Z,5.10
2023-04-25T21:31:22.123Z,5.20
2023-04-25T21:33:48.897Z,5.10
2023-04-25T21:36:15.859Z,5.10
2023-04-25T21:38:42.627Z,5.10
2023-04-25T21:41:09.393Z,5.20
2023-04-25T21:43:36.737Z,5.20
2023-04-25T21:46:19.059Z,5.20
2023-04-25T21:48:48.766Z,5.20
2023-04-25T21:51:15.493Z,5.20
2023-04-25T21:53:42.417Z,5.20
2023-04-25T21:56:10.645Z,5.10
2023-04-25T21:58:37.432Z,5.10
2023-04-25T22:01:07.141Z,5.20
2023-04-25T22:03:34.262Z,5.20
2023-04-25T22:06:01.243Z,5.20
2023-04-25T22:08:27.976Z,5.10
2023-04-25T22:10:57.826Z,5.10
2023-04-25T22:13:24.657Z,5.10
2023-04-25T22:15:52.589Z,5.00
2023-04-25T22:18:19.794Z,5.00
2023-04-25T22:20:46.560Z,5.00
2023-04-25T22:23:13.773Z,5.00
2023-04-25T22:25:40.640Z,5.00
2023-04-25T22:28:07.532Z,4.90
2023-04-25T22:30:35.040Z,4.90
2023-04-25T22:33:01.938Z,4.90
2023-04-25T22:35:28.737Z,4.90
2023-04-25T22:37:55.485Z,4.90
2023-04-25T22:40:22.245Z,4.90
2023-04-25T22:42:49.006Z,4.80
2023-04-25T22:45:16.049Z,4.90
2023-04-25T22:47:43.217Z,4.90
2023-04-25T22:50:13.924Z,4.90
2023-04-25T22:52:42.448Z,4.80
2023-04-25T22:55:11.023Z,4.80
2023-04-25T22:57:40.699Z,4.80
2023-04-25T23:00:15.664Z,4.90
2023-04-25T23:02:45.705Z,4.90
2023-04-25T23:05:13.729Z,4.80
2023-04-25T23:07:42.017Z,4.80
2023-04-25T23:10:09.340Z,4.70
2023-04-25T23:12:36.504Z,4.70
2023-04-25T23:15:05.141Z,4.70
2023-04-25T23:17:32.612Z,4.70
2023-04-25T23:19:59.635Z,4.70
2023-04-25T23:22:26.380Z,4.70
2023-04-25T23:24:53.153Z,4.70
2023-04-25T23:27:19.916Z,4.70
2023-04-25T23:29:54.714Z,4.70
2023-04-25T23:32:22.303Z,4.70
2023-04-25T23:34:49.455Z,4.70
2023-04-25T23:37:16.513Z,4.70
2023-04-25T23:39:52.945Z,4.70
2023-04-25T23:42:19.808Z,4.70
2023-04-25T23:44:46.578Z,4.60
2023-04-25T23:47:14.357Z,4.60
2023-04-25T23:49:41.459Z,4.60
2023-04-25T23:52:08.315Z,4.60
2023-04-25T23:54:35.413Z,4.60
2023-04-25T23:57:04.460Z,4.70
2023-04-25T23:59:31.725Z,4.60
